createdAt,value
2023-04-10T00:01:36.397Z,102111.70
2023-04-10T00:06:44.702Z,102106.84
2023-04-10T00:11:50.476Z,102106.42
2023-04-10T00:16:56.429Z,102107.87
2023-04-10T00:22:02.333Z,102107.63
2023-04-10T00:27:07.780Z,102101.56
2023-04-10T00:32:13.460Z,102097.26
2023-04-10T00:37:19.118Z,102084.50
2023-04-10T00:42:24.552Z,102091.69
2023-04-10T00:47:31.032Z,102094.89
2023-04-10T00:52:37.815Z,102098.55
2023-04-10T00:57:47.535Z,102090.60
2023-04-10T01:02:53.179Z,102087.94
2023-04-10T01:08:21.075Z,102083.06
2023-04-10T01:13:38.290Z,102082.61
2023-04-10T01:18:49.433Z,102079.55
2023-04-10T01:24:09.439Z,102076.97
2023-04-10T01:29:19.624Z,102073.53
2023-04-10T01:34:31.496Z,102071.56
2023-04-10T01:39:40.612Z,102082.73
2023-04-10T01:44:48.296Z,102072.61
2023-04-10T01:49:55.879Z,102076.55
2023-04-10T01:55:03.703Z,102069.26
2023-04-10T02:00:11.715Z,102072.87
2023-04-10T02:05:19.808Z,102066.27
2023-04-10T02:10:28.348Z,102063.60
2023-04-10T02:15:38.032Z,102065.08
2023-04-10T02:20:44.328Z,102058.09
2023-04-10T02:25:51.082Z,102065.76
2023-04-10T02:30:56.573Z,102061.30
2023-04-10T02:36:02.883Z,102057.02
2023-04-10T02:41:08.512Z,102054.39
2023-04-10T02:46:14.589Z,102050.36
2023-04-10T02:51:20.439Z,102050.36
2023-04-10T02:56:27.276Z,102058.72
2023-04-10T03:01:32.799Z,102065.38
2023-04-10T03:06:38.417Z,102074.25
2023-04-10T03:11:44.124Z,102070.30
2023-04-10T03:16:50.567Z,102073.56
2023-04-10T03:21:58.620Z,102065.22
2023-04-10T03:27:04.121Z,102055.48
2023-04-10T03:32:09.899Z,102065.59
2023-04-10T03:37:15.764Z,102065.59
2023-04-10T03:42:21.380Z,102061.25
2023-04-10T03:47:27.456Z,102060.98
2023-04-10T03:52:33.060Z,102060.23
2023-04-10T03:57:38.745Z,102061.17
2023-04-10T04:02:45.274Z,102046.87
2023-04-10T04:07:52.649Z,102046.87
2023-04-10T04:13:12.113Z,102053.45
2023-04-10T04:18:28.405Z,102051.75
2023-04-10T04:23:36.105Z,102056.69
2023-04-10T04:28:43.298Z,102066.91
2023-04-10T04:34:00.336Z,102066.91
2023-04-10T04:39:16.954Z,102058.83
2023-04-10T04:44:30.106Z,102062.56
2023-04-10T04:49:37.306Z,102062.55
2023-04-10T04:54:47.108Z,102053.95
2023-04-10T05:00:00.516Z,102072.43
2023-04-10T05:05:24.688Z,102072.43
2023-04-10T05:10:31.908Z,102074.77
2023-04-10T05:15:43.190Z,102074.22
2023-04-10T05:20:53.461Z,102077.11
2023-04-10T05:26:00.715Z,102074.33
2023-04-10T05:31:16.796Z,102082.99
2023-04-10T05:36:30.002Z,102074.80
2023-04-10T05:41:37.257Z,102077.25
2023-04-10T05:47:00.739Z,102081.98
2023-04-10T05:52:20.008Z,102084.61
2023-04-10T05:57:31.025Z,102082.95
2023-04-10T06:02:43.277Z,102089.34
2023-04-10T06:07:51.775Z,102079.55
2023-04-10T06:12:57.581Z,102076.47
2023-04-10T06:18:05.423Z,102085.34
2023-04-10T06:23:12.577Z,102088.17
2023-04-10T06:28:18.132Z,102085.26
2023-04-10T06:33:26.406Z,102082.36
2023-04-10T06:38:33.979Z,102075.95
2023-04-10T06:43:41.327Z,102072.60
2023-04-10T06:48:46.760Z,102064.34
2023-04-10T06:53:52.359Z,102059.68
2023-04-10T06:58:57.940Z,102063.39
2023-04-10T07:04:03.550Z,102050.37
2023-04-10T07:09:09.139Z,102056.44
2023-04-10T07:14:14.744Z,102049.86
2023-04-10T07:19:21.113Z,102058.57
2023-04-10T07:24:27.338Z,102054.78
2023-04-10T07:29:32.900Z,102053.45
2023-04-10T07:34:38.424Z,102048.27
2023-04-10T07:39:43.864Z,102047.80
2023-04-10T07:44:49.402Z,102041.94
2023-04-10T07:49:54.910Z,102041.48
2023-04-10T07:55:05.055Z,102034.52
2023-04-10T08:00:11.751Z,102032.06
2023-04-10T08:05:20.706Z,102027.50
2023-04-10T08:10:26.396Z,102027.76
2023-04-10T08:15:31.900Z,102016.80
2023-04-10T08:20:37.507Z,102011.95
2023-04-10T08:25:43.019Z,102009.44
2023-04-10T08:30:48.589Z,102007.62
2023-04-10T08:35:54.115Z,102004.19
2023-04-10T08:40:59.913Z,102008.19
2023-04-10T08:46:06.190Z,101997.40
2023-04-10T08:51:19.434Z,101999.67
2023-04-10T08:56:23.046Z,102002.96
2023-04-10T09:01:28.765Z,101996.45
2023-04-10T09:06:34.363Z,101995.36
2023-04-10T09:11:59.535Z,101984.93
2023-04-10T09:17:20.034Z,101984.48
2023-04-10T09:22:36.791Z,101988.28
2023-04-10T09:27:42.523Z,101986.07
2023-04-10T09:32:48.019Z,101980.58
2023-04-10T09:37:53.697Z,101965.01
2023-04-10T09:42:59.349Z,101968.20
2023-04-10T09:48:07.484Z,101954.48
2023-04-10T09:53:16.566Z,101944.58
2023-04-10T09:58:23.579Z,101940.69
2023-04-10T10:03:30.052Z,101934.78
2023-04-10T10:08:37.558Z,101927.63
2023-04-10T10:13:58.537Z,101912.31
2023-04-10T10:19:16.329Z,101903.23
2023-04-10T10:24:23.904Z,101892.19
2023-04-10T10:29:32.445Z,101898.36
2023-04-10T10:34:38.395Z,101892.06
2023-04-10T10:39:52.851Z,101894.09
2023-04-10T10:45:19.674Z,101885.02
2023-04-10T10:50:25.344Z,101880.52
2023-04-10T10:55:37.615Z,101878.05
2023-04-10T11:00:56.632Z,101878.42
2023-04-10T11:06:08.452Z,101872.17
2023-04-10T11:11:17.164Z,101858.93
2023-04-10T11:16:24.563Z,101850.83
2023-04-10T11:21:30.588Z,101840.21
2023-04-10T11:26:44.424Z,101836.48
2023-04-10T11:32:01.175Z,101832.30
2023-04-10T11:37:07.238Z,101820.20
2023-04-10T11:42:12.918Z,101814.41
2023-04-10T11:47:18.422Z,101809.81
2023-04-10T11:52:27.413Z,101802.46
2023-04-10T11:57:36.405Z,101798.30
2023-04-10T12:02:53.688Z,101795.25
2023-04-10T12:07:59.996Z,101775.14
2023-04-10T12:13:06.264Z,101790.88
2023-04-10T12:18:12.604Z,101775.19
2023-04-10T12:23:19.275Z,101762.16
2023-04-10T12:28:24.803Z,101765.78
2023-04-10T12:33:30.481Z,101763.55
2023-04-10T12:38:44.003Z,101748.33
2023-04-10T12:43:49.881Z,101748.28
2023-04-10T12:49:00.186Z,101737.30
2023-04-10T12:54:05.871Z,101725.43
2023-04-10T12:59:11.599Z,101719.16
2023-04-10T13:04:18.811Z,101710.86
2023-04-10T13:09:24.353Z,101702.53
2023-04-10T13:14:29.871Z,101695.13
2023-04-10T13:19:35.417Z,101679.73
2023-04-10T13:24:41.081Z,101663.70
2023-04-10T13:29:46.738Z,101657.13
2023-04-10T13:34:53.855Z,101648.06
2023-04-10T13:39:59.317Z,101638.00
2023-04-10T13:45:05.977Z,101629.98
2023-04-10T13:50:12.157Z,101617.00
2023-04-10T13:55:17.845Z,101619.39
2023-04-10T14:00:23.474Z,101605.30
2023-04-10T14:05:30.458Z,101602.67
2023-04-10T14:10:36.047Z,101593.95
2023-04-10T14:15:41.584Z,101592.77
2023-04-10T14:20:47.178Z,101579.83
2023-04-10T14:25:52.864Z,101573.30
2023-04-10T14:30:58.547Z,101577.48
2023-04-10T14:36:04.247Z,101561.20
2023-04-10T14:41:09.957Z,101555.38
2023-04-10T14:46:15.796Z,101545.27
2023-04-10T14:51:21.265Z,101537.86
2023-04-10T14:56:26.935Z,101522.98
2023-04-10T15:01:32.392Z,101522.72
2023-04-10T15:06:37.966Z,101519.27
2023-04-10T15:11:43.414Z,101509.98
2023-04-10T15:16:48.918Z,101504.48
2023-04-10T15:21:55.428Z,101497.77
2023-04-10T15:27:01.678Z,101488.67
2023-04-10T15:32:07.869Z,101488.72
2023-04-10T15:37:13.388Z,101466.30
2023-04-10T15:42:18.973Z,101463.44
2023-04-10T15:47:24.849Z,101453.72
2023-04-10T15:52:32.068Z,101458.27
2023-04-10T15:57:37.630Z,101446.25
2023-04-10T16:02:43.519Z,101432.38
2023-04-10T16:07:49.260Z,101418.31
2023-04-10T16:12:56.676Z,101402.52
2023-04-10T16:18:02.136Z,101406.61
2023-04-10T16:23:07.725Z,101387.79
2023-04-10T16:28:13.379Z,101388.86
2023-04-10T16:33:18.826Z,101377.31
2023-04-10T16:38:24.647Z,101370.00
2023-04-10T16:43:30.260Z,101364.27
2023-04-10T16:48:37.016Z,101357.11
2023-04-10T16:53:42.600Z,101346.84
2023-04-10T16:58:48.098Z,101345.05
2023-04-10T17:03:54.729Z,101338.46
2023-04-10T17:09:00.272Z,101329.23
2023-04-10T17:14:07.413Z,101323.42
2023-04-10T17:19:13.192Z,101316.88
2023-04-10T17:24:18.709Z,101309.27
2023-04-10T17:29:25.868Z,101312.77
2023-04-10T17:34:31.494Z,101307.59
2023-04-10T17:39:36.998Z,101304.20
2023-04-10T17:44:42.547Z,101305.01
2023-04-10T17:49:48.217Z,101296.17
2023-04-10T17:54:53.722Z,101295.66
2023-04-10T17:59:59.522Z,101290.55
2023-04-10T18:05:06.600Z,101288.69
2023-04-10T18:10:12.668Z,101281.26
2023-04-10T18:15:18.912Z,101282.89
2023-04-10T18:20:24.696Z,101269.53
2023-04-10T18:25:30.147Z,101260.66
2023-04-10T18:30:37.293Z,101260.83
2023-04-10T18:35:42.947Z,101258.61
2023-04-10T18:40:48.541Z,101257.28
2023-04-10T18:45:55.108Z,101240.63
2023-04-10T18:51:00.788Z,101236.02
2023-04-10T18:56:06.639Z,101226.11
2023-04-10T19:01:12.563Z,101216.84
2023-04-10T19:06:18.045Z,101214.94
2023-04-10T19:11:23.632Z,101208.84
2023-04-10T19:16:29.171Z,101206.45
2023-04-10T19:21:34.909Z,101204.91
2023-04-10T19:26:40.759Z,101193.52
2023-04-10T19:31:46.292Z,101184.39
2023-04-10T19:36:51.825Z,101185.08
2023-04-10T19:41:57.819Z,101169.52
2023-04-10T19:47:03.828Z,101161.36
2023-04-10T19:52:09.810Z,101139.45
2023-04-10T19:57:15.587Z,101150.36
2023-04-10T20:02:22.972Z,101136.59
2023-04-10T20:07:29.604Z,101125.92
2023-04-10T20:12:35.408Z,101124.87
2023-04-10T20:17:41.753Z,101114.60
2023-04-10T20:22:47.381Z,101096.64
2023-04-10T20:27:52.955Z,101087.18
2023-04-10T20:32:58.414Z,101078.55
2023-04-10T20:38:05.086Z,101072.12
2023-04-10T20:43:14.225Z,101058.01
2023-04-10T20:48:19.997Z,101061.89
2023-04-10T20:53:26.778Z,101060.94
2023-04-10T20:58:32.225Z,101055.66
2023-04-10T21:03:37.813Z,101051.16
2023-04-10T21:08:43.615Z,101046.10
2023-04-10T21:13:49.428Z,101041.50
2023-04-10T21:18:55.007Z,101035.36
2023-04-10T21:24:00.843Z,101025.38
2023-04-10T21:29:06.503Z,101008.02
2023-04-10T21:34:12.169Z,101010.55
2023-04-10T21:39:17.702Z,101007.19
2023-04-10T21:44:23.224Z,101001.15
2023-04-10T21:49:28.706Z,100994.81
2023-04-10T21:54:34.589Z,100997.22
2023-04-10T21:59:40.056Z,100985.17
2023-04-10T22:04:53.962Z,100973.85
2023-04-10T22:09:52.687Z,100979.03
2023-04-10T22:14:58.154Z,100971.58
2023-04-10T22:20:03.886Z,100964.96
2023-04-10T22:25:10.062Z,100957.00
2023-04-10T22:30:16.219Z,100954.31
2023-04-10T22:35:21.806Z,100951.05
2023-04-10T22:40:27.397Z,100939.73
2023-04-10T22:45:32.921Z,100929.30
2023-04-10T22:50:38.610Z,100926.41
2023-04-10T22:55:44.068Z,100918.55
2023-04-10T23:00:49.504Z,100905.27
2023-04-10T23:05:55.083Z,100873.06
2023-04-10T23:11:00.662Z,100878.04
2023-04-10T23:16:06.832Z,100848.16
2023-04-10T23:21:12.417Z,100845.20
2023-04-10T23:26:17.874Z,100838.60
2023-04-10T23:31:23.495Z,100823.56
2023-04-10T23:36:29.036Z,100809.96
2023-04-10T23:41:35.057Z,100795.91
2023-04-10T23:46:40.665Z,100792.94
2023-04-10T23:51:47.166Z,100783.84
2023-04-10T23:56:52.781Z,100771.77
